sensor_id;sensor_type;location;lat;lon;timestamp;P1;durP1;ratioP1;P2;durP2;ratioP2
78740;SDS011;68062;48.726;9.370;2024-01-15T00:00:32;56.87;;;27.63;;
78740;SDS011;68062;48.726;9.370;2024-01-15T00:03:00;59.03;;;25.60;;
78740;SDS011;68062;48.726;9.370;2024-01-15T00:05:28;44.40;;;24.53;;
78740;SDS011;68062;48.726;9.370;2024-01-15T00:07:56;54.93;;;25.00;;
78740;SDS011;68062;48.726;9.370;2024-01-15T00:10:25;65.37;;;27.57;;
78740;SDS011;68062;48.726;9.370;2024-01-15T00:12:52;43.70;;;18.93;;
78740;SDS011;68062;48.726;9.370;2024-01-15T00:15:20;56.23;;;24.50;;
78740;SDS011;68062;48.726;9.370;2024-01-15T00:17:48;51.80;;;26.60;;
78740;SDS011;68062;48.726;9.370;2024-01-15T00:20:16;53.37;;;24.30;;
78740;SDS011;68062;48.726;9.370;2024-01-15T00:22:44;58.47;;;26.70;;
78740;SDS011;68062;48.726;9.370;2024-01-15T00:25:12;46.17;;;25.37;;
78740;SDS011;68062;48.726;9.370;2024-01-15T00:27:41;48.90;;;25.17;;
78740;SDS011;68062;48.726;9.370;2024-01-15T00:30:09;47.73;;;25.63;;
78740;SDS011;68062;48.726;9.370;2024-01-15T00:32:38;55.47;;;28.03;;
78740;SDS011;68062;48.726;9.370;2024-01-15T00:35:06;54.00;;;23.80;;
78740;SDS011;68062;48.726;9.370;2024-01-15T00:37:34;62.43;;;27.87;;
78740;SDS011;68062;48.726;9.370;2024-01-15T00:40:02;49.70;;;25.03;;
78740;SDS011;68062;48.726;9.370;2024-01-15T00:42:31;55.83;;;27.47;;
78740;SDS011;68062;48.726;9.370;2024-01-15T00:45:00;58.70;;;25.33;;
78740;SDS011;68062;48.726;9.370;2024-01-15T00:47:28;61.27;;;27.87;;
78740;SDS011;68062;48.726;9.370;2024-01-15T00:49:56;56.67;;;26.00;;
78740;SDS011;68062;48.726;9.370;2024-01-15T00:52:24;46.03;;;23.47;;
78740;SDS011;68062;48.726;9.370;2024-01-15T00:54:51;48.37;;;22.90;;
78740;SDS011;68062;48.726;9.370;2024-01-15T00:57:20;50.43;;;22.53;;
78740;SDS011;68062;48.726;9.370;2024-01-15T00:59:47;54.60;;;25.77;;
78740;SDS011;68062;48.726;9.370;2024-01-15T01:02:17;45.30;;;23.10;;
78740;SDS011;68062;48.726;9.370;2024-01-15T01:07:42;44.93;;;21.43;;
78740;SDS011;68062;48.726;9.370;2024-01-15T01:10:09;39.53;;;21.53;;
78740;SDS011;68062;48.726;9.370;2024-01-15T01:12:37;46.97;;;23.53;;
78740;SDS011;68062;48.726;9.370;2024-01-15T01:15:05;36.13;;;19.90;;
78740;SDS011;68062;48.726;9.370;2024-01-15T01:17:35;37.27;;;18.33;;
78740;SDS011;68062;48.726;9.370;2024-01-15T01:20:03;40.70;;;18.97;;
78740;SDS011;68062;48.726;9.370;2024-01-15T01:22:34;43.30;;;20.33;;
78740;SDS011;68062;48.726;9.370;2024-01-15T01:25:02;44.70;;;20.00;;
78740;SDS011;68062;48.726;9.370;2024-01-15T01:27:31;49.53;;;23.00;;
78740;SDS011;68062;48.726;9.370;2024-01-15T01:29:59;45.50;;;20.57;;
78740;SDS011;68062;48.726;9.370;2024-01-15T01:32:27;50.90;;;23.57;;
78740;SDS011;68062;48.726;9.370;2024-01-15T01:34:56;39.03;;;21.60;;
78740;SDS011;68062;48.726;9.370;2024-01-15T01:37:24;37.67;;;19.50;;
78740;SDS011;68062;48.726;9.370;2024-01-15T01:39:52;42.50;;;20.47;;
78740;SDS011;68062;48.726;9.370;2024-01-15T01:42:20;35.33;;;19.17;;
78740;SDS011;68062;48.726;9.370;2024-01-15T01:44:48;35.73;;;17.40;;
78740;SDS011;68062;48.726;9.370;2024-01-15T01:47:16;31.47;;;15.20;;
78740;SDS011;68062;48.726;9.370;2024-01-15T01:49:44;32.00;;;17.30;;
78740;SDS011;68062;48.726;9.370;2024-01-15T01:52:15;32.53;;;16.30;;
78740;SDS011;68062;48.726;9.370;2024-01-15T01:54:43;37.43;;;18.70;;
78740;SDS011;68062;48.726;9.370;2024-01-15T01:57:11;33.03;;;17.67;;
78740;SDS011;68062;48.726;9.370;2024-01-15T01:59:40;39.40;;;19.43;;
78740;SDS011;68062;48.726;9.370;2024-01-15T02:02:08;32.80;;;17.20;;
78740;SDS011;68062;48.726;9.370;2024-01-15T02:04:36;35.30;;;17.80;;
78740;SDS011;68062;48.726;9.370;2024-01-15T02:07:04;30.60;;;15.80;;
78740;SDS011;68062;48.726;9.370;2024-01-15T02:09:34;30.37;;;16.23;;
78740;SDS011;68062;48.726;9.370;2024-01-15T02:12:02;29.00;;;14.20;;
78740;SDS011;68062;48.726;9.370;2024-01-15T02:14:30;24.57;;;13.37;;
78740;SDS011;68062;48.726;9.370;2024-01-15T02:16:58;23.73;;;13.00;;
78740;SDS011;68062;48.726;9.370;2024-01-15T02:19:26;22.90;;;11.67;;
78740;SDS011;68062;48.726;9.370;2024-01-15T02:21:54;22.57;;;12.10;;
78740;SDS011;68062;48.726;9.370;2024-01-15T02:24:24;26.27;;;12.67;;
78740;SDS011;68062;48.726;9.370;2024-01-15T02:26:52;22.87;;;12.33;;
78740;SDS011;68062;48.726;9.370;2024-01-15T02:29:20;22.23;;;10.40;;
78740;SDS011;68062;48.726;9.370;2024-01-15T02:31:48;23.20;;;11.50;;
78740;SDS011;68062;48.726;9.370;2024-01-15T02:34:16;25.20;;;12.57;;
78740;SDS011;68062;48.726;9.370;2024-01-15T02:36:44;19.87;;;11.63;;
78740;SDS011;68062;48.726;9.370;2024-01-15T02:39:12;18.00;;;9.40;;
78740;SDS011;68062;48.726;9.370;2024-01-15T02:41:41;19.97;;;10.30;;
78740;SDS011;68062;48.726;9.370;2024-01-15T02:44:09;18.57;;;10.00;;
78740;SDS011;68062;48.726;9.370;2024-01-15T02:46:37;21.57;;;11.30;;
78740;SDS011;68062;48.726;9.370;2024-01-15T02:49:04;21.83;;;10.40;;
78740;SDS011;68062;48.726;9.370;2024-01-15T02:51:33;19.27;;;10.23;;
78740;SDS011;68062;48.726;9.370;2024-01-15T02:54:01;20.90;;;10.53;;
78740;SDS011;68062;48.726;9.370;2024-01-15T02:56:29;23.37;;;11.50;;
78740;SDS011;68062;48.726;9.370;2024-01-15T02:58:58;21.50;;;10.10;;
78740;SDS011;68062;48.726;9.370;2024-01-15T03:01:26;17.43;;;9.53;;
78740;SDS011;68062;48.726;9.370;2024-01-15T03:03:54;20.10;;;9.20;;
78740;SDS011;68062;48.726;9.370;2024-01-15T03:06:24;17.30;;;10.93;;
78740;SDS011;68062;48.726;9.370;2024-01-15T03:08:52;20.60;;;10.50;;
78740;SDS011;68062;48.726;9.370;2024-01-15T03:11:19;21.17;;;10.57;;
78740;SDS011;68062;48.726;9.370;2024-01-15T03:13:47;20.37;;;11.30;;
78740;SDS011;68062;48.726;9.370;2024-01-15T03:16:16;24.10;;;10.73;;
78740;SDS011;68062;48.726;9.370;2024-01-15T03:18:46;16.40;;;9.60;;
78740;SDS011;68062;48.726;9.370;2024-01-15T03:21:14;20.53;;;9.93;;
78740;SDS011;68062;48.726;9.370;2024-01-15T03:23:42;17.10;;;10.23;;
78740;SDS011;68062;48.726;9.370;2024-01-15T03:26:10;19.50;;;10.30;;
78740;SDS011;68062;48.726;9.370;2024-01-15T03:28:38;21.17;;;12.10;;
78740;SDS011;68062;48.726;9.370;2024-01-15T03:31:06;22.73;;;11.97;;
78740;SDS011;68062;48.726;9.370;2024-01-15T03:33:36;16.07;;;9.43;;
78740;SDS011;68062;48.726;9.370;2024-01-15T03:36:04;17.90;;;10.10;;
78740;SDS011;68062;48.726;9.370;2024-01-15T03:38:33;17.20;;;9.97;;
78740;SDS011;68062;48.726;9.370;2024-01-15T03:41:00;22.20;;;10.20;;
78740;SDS011;68062;48.726;9.370;2024-01-15T03:43:29;21.17;;;11.30;;
78740;SDS011;68062;48.726;9.370;2024-01-15T03:45:56;17.13;;;8.80;;
78740;SDS011;68062;48.726;9.370;2024-01-15T03:48:24;20.10;;;8.77;;
78740;SDS011;68062;48.726;9.370;2024-01-15T03:50:54;22.60;;;10.63;;
78740;SDS011;68062;48.726;9.370;2024-01-15T03:53:22;19.07;;;10.20;;
78740;SDS011;68062;48.726;9.370;2024-01-15T03:55:50;16.57;;;9.70;;
78740;SDS011;68062;48.726;9.370;2024-01-15T03:58:18;17.60;;;9.10;;
78740;SDS011;68062;48.726;9.370;2024-01-15T04:00:46;19.90;;;10.57;;
78740;SDS011;68062;48.726;9.370;2024-01-15T04:03:14;20.17;;;10.17;;
78740;SDS011;68062;48.726;9.370;2024-01-15T04:05:42;19.30;;;9.70;;
78740;SDS011;68062;48.726;9.370;2024-01-15T04:08:12;19.83;;;11.07;;
78740;SDS011;68062;48.726;9.370;2024-01-15T04:10:39;20.50;;;10.20;;
78740;SDS011;68062;48.726;9.370;2024-01-15T04:13:08;19.97;;;9.20;;
78740;SDS011;68062;48.726;9.370;2024-01-15T04:15:35;21.00;;;9.80;;
78740;SDS011;68062;48.726;9.370;2024-01-15T04:18:04;18.47;;;9.60;;
78740;SDS011;68062;48.726;9.370;2024-01-15T04:20:32;21.17;;;9.30;;
78740;SDS011;68062;48.726;9.370;2024-01-15T04:23:00;18.47;;;9.23;;
78740;SDS011;68062;48.726;9.370;2024-01-15T04:25:29;15.83;;;8.93;;
78740;SDS011;68062;48.726;9.370;2024-01-15T04:27:57;19.07;;;9.33;;
78740;SDS011;68062;48.726;9.370;2024-01-15T04:30:24;23.37;;;9.87;;
78740;SDS011;68062;48.726;9.370;2024-01-15T04:32:52;16.60;;;9.40;;
78740;SDS011;68062;48.726;9.370;2024-01-15T04:35:20;20.23;;;9.70;;
78740;SDS011;68062;48.726;9.370;2024-01-15T04:37:48;19.40;;;10.33;;
78740;SDS011;68062;48.726;9.370;2024-01-15T04:40:16;17.37;;;8.97;;
78740;SDS011;68062;48.726;9.370;2024-01-15T04:42:45;17.53;;;8.60;;
78740;SDS011;68062;48.726;9.370;2024-01-15T04:45:13;22.53;;;10.30;;
78740;SDS011;68062;48.726;9.370;2024-01-15T04:47:42;17.70;;;10.10;;
78740;SDS011;68062;48.726;9.370;2024-01-15T04:50:10;17.17;;;9.40;;
78740;SDS011;68062;48.726;9.370;2024-01-15T04:52:37;23.10;;;10.63;;
78740;SDS011;68062;48.726;9.370;2024-01-15T04:55:06;19.47;;;9.40;;
78740;SDS011;68062;48.726;9.370;2024-01-15T04:57:34;18.50;;;8.90;;
78740;SDS011;68062;48.726;9.370;2024-01-15T05:00:03;20.27;;;9.47;;
78740;SDS011;68062;48.726;9.370;2024-01-15T05:02:32;17.97;;;10.03;;
78740;SDS011;68062;48.726;9.370;2024-01-15T05:05:00;17.77;;;9.50;;
78740;SDS011;68062;48.726;9.370;2024-01-15T05:07:28;20.27;;;9.47;;
78740;SDS011;68062;48.726;9.370;2024-01-15T05:09:56;14.10;;;8.50;;
78740;SDS011;68062;48.726;9.370;2024-01-15T05:12:24;20.83;;;9.20;;
78740;SDS011;68062;48.726;9.370;2024-01-15T05:14:52;20.17;;;9.10;;
78740;SDS011;68062;48.726;9.370;2024-01-15T05:17:21;16.50;;;9.17;;
78740;SDS011;68062;48.726;9.370;2024-01-15T05:19:49;17.70;;;9.43;;
78740;SDS011;68062;48.726;9.370;2024-01-15T05:22:17;16.23;;;8.93;;
78740;SDS011;68062;48.726;9.370;2024-01-15T05:24:45;22.50;;;10.43;;
78740;SDS011;68062;48.726;9.370;2024-01-15T05:27:13;21.10;;;9.30;;
78740;SDS011;68062;48.726;9.370;2024-01-15T05:29:41;17.60;;;10.03;;
78740;SDS011;68062;48.726;9.370;2024-01-15T05:32:09;23.43;;;10.53;;
78740;SDS011;68062;48.726;9.370;2024-01-15T05:34:38;18.93;;;10.30;;
78740;SDS011;68062;48.726;9.370;2024-01-15T05:37:06;22.77;;;10.37;;
78740;SDS011;68062;48.726;9.370;2024-01-15T05:39:34;16.27;;;9.90;;
78740;SDS011;68062;48.726;9.370;2024-01-15T05:42:03;20.43;;;10.57;;
78740;SDS011;68062;48.726;9.370;2024-01-15T05:44:32;19.93;;;10.03;;
78740;SDS011;68062;48.726;9.370;2024-01-15T05:46:59;18.60;;;9.03;;
78740;SDS011;68062;48.726;9.370;2024-01-15T05:49:27;20.40;;;10.67;;
78740;SDS011;68062;48.726;9.370;2024-01-15T05:51:57;21.40;;;11.33;;
78740;SDS011;68062;48.726;9.370;2024-01-15T05:54:25;19.23;;;9.87;;
78740;SDS011;68062;48.726;9.370;2024-01-15T05:56:53;21.67;;;10.87;;
78740;SDS011;68062;48.726;9.370;2024-01-15T05:59:21;19.93;;;10.47;;
78740;SDS011;68062;48.726;9.370;2024-01-15T06:01:49;25.53;;;12.63;;
78740;SDS011;68062;48.726;9.370;2024-01-15T06:04:17;18.53;;;10.37;;
78740;SDS011;68062;48.726;9.370;2024-01-15T06:06:45;21.80;;;10.03;;
78740;SDS011;68062;48.726;9.370;2024-01-15T06:09:14;19.80;;;9.60;;
78740;SDS011;68062;48.726;9.370;2024-01-15T06:11:43;19.73;;;9.93;;
78740;SDS011;68062;48.726;9.370;2024-01-15T06:14:10;14.77;;;8.87;;
78740;SDS011;68062;48.726;9.370;2024-01-15T06:16:38;14.63;;;9.73;;
78740;SDS011;68062;48.726;9.370;2024-01-15T06:19:06;14.20;;;8.73;;
78740;SDS011;68062;48.726;9.370;2024-01-15T06:21:34;19.17;;;9.20;;
78740;SDS011;68062;48.726;9.370;2024-01-15T06:24:02;18.10;;;8.97;;
78740;SDS011;68062;48.726;9.370;2024-01-15T06:26:32;16.13;;;9.10;;
78740;SDS011;68062;48.726;9.370;2024-01-15T06:29:00;14.00;;;8.93;;
78740;SDS011;68062;48.726;9.370;2024-01-15T06:31:29;12.50;;;7.97;;
78740;SDS011;68062;48.726;9.370;2024-01-15T06:33:57;13.47;;;8.20;;
78740;SDS011;68062;48.726;9.370;2024-01-15T06:36:26;20.10;;;9.40;;
78740;SDS011;68062;48.726;9.370;2024-01-15T06:38:54;17.10;;;9.10;;
78740;SDS011;68062;48.726;9.370;2024-01-15T06:41:22;19.40;;;10.20;;
78740;SDS011;68062;48.726;9.370;2024-01-15T06:43:52;15.63;;;9.00;;
78740;SDS011;68062;48.726;9.370;2024-01-15T06:46:20;17.23;;;8.87;;
78740;SDS011;68062;48.726;9.370;2024-01-15T06:48:48;17.47;;;9.43;;
78740;SDS011;68062;48.726;9.370;2024-01-15T06:51:17;21.20;;;9.60;;
78740;SDS011;68062;48.726;9.370;2024-01-15T06:53:46;17.63;;;9.33;;
78740;SDS011;68062;48.726;9.370;2024-01-15T06:56:13;18.30;;;9.10;;
78740;SDS011;68062;48.726;9.370;2024-01-15T06:58:41;19.60;;;9.60;;
78740;SDS011;68062;48.726;9.370;2024-01-15T07:01:11;17.20;;;9.67;;
78740;SDS011;68062;48.726;9.370;2024-01-15T07:03:39;20.87;;;10.13;;
78740;SDS011;68062;48.726;9.370;2024-01-15T07:06:07;13.83;;;8.90;;
78740;SDS011;68062;48.726;9.370;2024-01-15T07:08:35;16.87;;;10.97;;
78740;SDS011;68062;48.726;9.370;2024-01-15T07:11:04;19.63;;;9.93;;
78740;SDS011;68062;48.726;9.370;2024-01-15T07:13:33;17.63;;;9.17;;
78740;SDS011;68062;48.726;9.370;2024-01-15T07:16:01;18.00;;;9.47;;
78740;SDS011;68062;48.726;9.370;2024-01-15T07:18:30;18.57;;;9.43;;
78740;SDS011;68062;48.726;9.370;2024-01-15T07:21:00;14.83;;;7.80;;
78740;SDS011;68062;48.726;9.370;2024-01-15T07:23:30;13.83;;;9.47;;
78740;SDS011;68062;48.726;9.370;2024-01-15T07:25:58;16.87;;;9.10;;
78740;SDS011;68062;48.726;9.370;2024-01-15T07:28:28;17.77;;;10.30;;
78740;SDS011;68062;48.726;9.370;2024-01-15T07:30:56;20.80;;;10.27;;
78740;SDS011;68062;48.726;9.370;2024-01-15T07:33:25;15.60;;;8.53;;
78740;SDS011;68062;48.726;9.370;2024-01-15T07:35:55;14.67;;;8.40;;
78740;SDS011;68062;48.726;9.370;2024-01-15T07:38:26;15.83;;;8.23;;
78740;SDS011;68062;48.726;9.370;2024-01-15T07:40:54;18.57;;;9.57;;
78740;SDS011;68062;48.726;9.370;2024-01-15T07:43:22;12.70;;;7.17;;
78740;SDS011;68062;48.726;9.370;2024-01-15T07:45:50;11.13;;;6.60;;
78740;SDS011;68062;48.726;9.370;2024-01-15T07:48:18;11.90;;;6.80;;
78740;SDS011;68062;48.726;9.370;2024-01-15T07:50:46;10.53;;;6.77;;
78740;SDS011;68062;48.726;9.370;2024-01-15T07:53:16;16.80;;;9.00;;
78740;SDS011;68062;48.726;9.370;2024-01-15T07:55:44;12.70;;;7.50;;
78740;SDS011;68062;48.726;9.370;2024-01-15T07:58:12;14.00;;;9.07;;
78740;SDS011;68062;48.726;9.370;2024-01-15T08:00:42;12.10;;;7.37;;
78740;SDS011;68062;48.726;9.370;2024-01-15T08:03:11;14.83;;;7.40;;
78740;SDS011;68062;48.726;9.370;2024-01-15T08:05:39;13.20;;;7.43;;
78740;SDS011;68062;48.726;9.370;2024-01-15T08:08:07;18.03;;;7.43;;
78740;SDS011;68062;48.726;9.370;2024-01-15T08:10:36;15.67;;;8.43;;
78740;SDS011;68062;48.726;9.370;2024-01-15T08:13:04;14.23;;;8.60;;
78740;SDS011;68062;48.726;9.370;2024-01-15T08:15:34;21.90;;;10.03;;
78740;SDS011;68062;48.726;9.370;2024-01-15T08:18:04;16.47;;;9.87;;
78740;SDS011;68062;48.726;9.370;2024-01-15T08:20:32;18.13;;;8.83;;
78740;SDS011;68062;48.726;9.370;2024-01-15T08:23:00;14.97;;;7.93;;
78740;SDS011;68062;48.726;9.370;2024-01-15T08:25:28;15.37;;;9.90;;
78740;SDS011;68062;48.726;9.370;2024-01-15T08:27:58;14.97;;;9.30;;
78740;SDS011;68062;48.726;9.370;2024-01-15T08:30:26;15.23;;;9.50;;
78740;SDS011;68062;48.726;9.370;2024-01-15T08:32:56;17.50;;;10.70;;
78740;SDS011;68062;48.726;9.370;2024-01-15T08:35:33;19.90;;;8.40;;
78740;SDS011;68062;48.726;9.370;2024-01-15T08:38:02;11.47;;;7.70;;
78740;SDS011;68062;48.726;9.370;2024-01-15T08:40:31;13.73;;;8.60;;
78740;SDS011;68062;48.726;9.370;2024-01-15T08:43:01;18.50;;;8.40;;
78740;SDS011;68062;48.726;9.370;2024-01-15T08:45:29;13.17;;;8.00;;
78740;SDS011;68062;48.726;9.370;2024-01-15T08:47:58;10.33;;;6.17;;
78740;SDS011;68062;48.726;9.370;2024-01-15T08:50:26;15.57;;;8.77;;
78740;SDS011;68062;48.726;9.370;2024-01-15T08:52:54;12.57;;;7.17;;
78740;SDS011;68062;48.726;9.370;2024-01-15T08:55:22;12.33;;;7.27;;
78740;SDS011;68062;48.726;9.370;2024-01-15T08:57:50;13.13;;;8.33;;
78740;SDS011;68062;48.726;9.370;2024-01-15T09:00:20;15.20;;;7.30;;
78740;SDS011;68062;48.726;9.370;2024-01-15T09:02:47;14.27;;;7.50;;
78740;SDS011;68062;48.726;9.370;2024-01-15T09:05:16;12.07;;;7.67;;
78740;SDS011;68062;48.726;9.370;2024-01-15T09:07:44;10.60;;;6.90;;
78740;SDS011;68062;48.726;9.370;2024-01-15T09:10:13;12.40;;;6.70;;
78740;SDS011;68062;48.726;9.370;2024-01-15T09:12:41;14.73;;;7.90;;
78740;SDS011;68062;48.726;9.370;2024-01-15T09:15:10;12.40;;;7.30;;
78740;SDS011;68062;48.726;9.370;2024-01-15T09:17:40;12.57;;;8.03;;
78740;SDS011;68062;48.726;9.370;2024-01-15T09:20:09;16.30;;;7.10;;
78740;SDS011;68062;48.726;9.370;2024-01-15T09:22:38;13.50;;;6.80;;
78740;SDS011;68062;48.726;9.370;2024-01-15T09:25:07;14.50;;;7.10;;
78740;SDS011;68062;48.726;9.370;2024-01-15T09:27:36;9.93;;;7.10;;
78740;SDS011;68062;48.726;9.370;2024-01-15T09:30:04;12.10;;;7.20;;
78740;SDS011;68062;48.726;9.370;2024-01-15T09:32:35;18.93;;;8.27;;
78740;SDS011;68062;48.726;9.370;2024-01-15T09:35:05;12.97;;;7.03;;
78740;SDS011;68062;48.726;9.370;2024-01-15T09:37:34;26.77;;;9.67;;
78740;SDS011;68062;48.726;9.370;2024-01-15T09:40:13;16.00;;;9.50;;
78740;SDS011;68062;48.726;9.370;2024-01-15T09:42:43;13.67;;;6.10;;
78740;SDS011;68062;48.726;9.370;2024-01-15T09:45:11;10.90;;;7.20;;
78740;SDS011;68062;48.726;9.370;2024-01-15T09:47:40;7.50;;;5.17;;
78740;SDS011;68062;48.726;9.370;2024-01-15T09:50:13;9.17;;;5.60;;
78740;SDS011;68062;48.726;9.370;2024-01-15T09:52:43;11.67;;;6.17;;
78740;SDS011;68062;48.726;9.370;2024-01-15T09:55:12;9.43;;;5.30;;
78740;SDS011;68062;48.726;9.370;2024-01-15T09:57:42;16.70;;;7.30;;
78740;SDS011;68062;48.726;9.370;2024-01-15T10:00:12;8.93;;;4.97;;
78740;SDS011;68062;48.726;9.370;2024-01-15T10:02:41;11.73;;;7.03;;
78740;SDS011;68062;48.726;9.370;2024-01-15T10:05:09;14.33;;;6.70;;
78740;SDS011;68062;48.726;9.370;2024-01-15T10:07:39;11.57;;;6.80;;
78740;SDS011;68062;48.726;9.370;2024-01-15T10:10:08;13.03;;;7.17;;
78740;SDS011;68062;48.726;9.370;2024-01-15T10:12:38;8.17;;;5.73;;
78740;SDS011;68062;48.726;9.370;2024-01-15T10:15:09;11.60;;;6.20;;
78740;SDS011;68062;48.726;9.370;2024-01-15T10:17:37;8.33;;;4.77;;
78740;SDS011;68062;48.726;9.370;2024-01-15T10:20:07;9.70;;;5.63;;
78740;SDS011;68062;48.726;9.370;2024-01-15T10:22:40;11.27;;;5.47;;
78740;SDS011;68062;48.726;9.370;2024-01-15T10:25:10;11.07;;;5.50;;
78740;SDS011;68062;48.726;9.370;2024-01-15T10:27:38;13.20;;;7.20;;
78740;SDS011;68062;48.726;9.370;2024-01-15T10:30:07;9.63;;;5.10;;
78740;SDS011;68062;48.726;9.370;2024-01-15T10:32:38;17.40;;;7.30;;
78740;SDS011;68062;48.726;9.370;2024-01-15T10:35:08;8.90;;;5.40;;
78740;SDS011;68062;48.726;9.370;2024-01-15T10:37:35;12.07;;;6.63;;
78740;SDS011;68062;48.726;9.370;2024-01-15T10:40:05;14.13;;;6.37;;
78740;SDS011;68062;48.726;9.370;2024-01-15T10:42:34;9.00;;;5.53;;
78740;SDS011;68062;48.726;9.370;2024-01-15T10:45:02;9.17;;;5.80;;
78740;SDS011;68062;48.726;9.370;2024-01-15T10:47:30;9.60;;;5.17;;
78740;SDS011;68062;48.726;9.370;2024-01-15T10:49:58;8.17;;;4.87;;
78740;SDS011;68062;48.726;9.370;2024-01-15T10:52:27;8.43;;;5.63;;
78740;SDS011;68062;48.726;9.370;2024-01-15T10:54:55;10.50;;;5.17;;
78740;SDS011;68062;48.726;9.370;2024-01-15T10:57:25;9.73;;;5.83;;
78740;SDS011;68062;48.726;9.370;2024-01-15T10:59:54;7.57;;;5.30;;
78740;SDS011;68062;48.726;9.370;2024-01-15T11:02:21;10.60;;;6.10;;
78740;SDS011;68062;48.726;9.370;2024-01-15T11:04:50;9.33;;;5.57;;
78740;SDS011;68062;48.726;9.370;2024-01-15T11:07:18;9.67;;;5.80;;
78740;SDS011;68062;48.726;9.370;2024-01-15T11:09:54;7.20;;;5.07;;
78740;SDS011;68062;48.726;9.370;2024-01-15T11:12:22;8.90;;;6.00;;
78740;SDS011;68062;48.726;9.370;2024-01-15T11:14:51;8.23;;;5.17;;
78740;SDS011;68062;48.726;9.370;2024-01-15T11:17:21;6.63;;;4.57;;
78740;SDS011;68062;48.726;9.370;2024-01-15T11:19:51;6.93;;;4.83;;
78740;SDS011;68062;48.726;9.370;2024-01-15T11:25:17;9.73;;;4.77;;
78740;SDS011;68062;48.726;9.370;2024-01-15T11:27:46;10.80;;;5.20;;
78740;SDS011;68062;48.726;9.370;2024-01-15T11:30:19;8.50;;;5.47;;
78740;SDS011;68062;48.726;9.370;2024-01-15T11:32:47;10.30;;;4.83;;
78740;SDS011;68062;48.726;9.370;2024-01-15T11:35:16;9.77;;;4.57;;
78740;SDS011;68062;48.726;9.370;2024-01-15T11:37:58;11.33;;;5.30;;
78740;SDS011;68062;48.726;9.370;2024-01-15T11:40:37;14.57;;;7.40;;
78740;SDS011;68062;48.726;9.370;2024-01-15T11:43:09;9.57;;;4.67;;
78740;SDS011;68062;48.726;9.370;2024-01-15T11:45:38;8.10;;;4.20;;
78740;SDS011;68062;48.726;9.370;2024-01-15T11:48:11;11.40;;;4.60;;
78740;SDS011;68062;48.726;9.370;2024-01-15T11:50:41;5.73;;;4.50;;
78740;SDS011;68062;48.726;9.370;2024-01-15T11:53:13;6.83;;;4.90;;
78740;SDS011;68062;48.726;9.370;2024-01-15T11:55:45;8.03;;;4.67;;
78740;SDS011;68062;48.726;9.370;2024-01-15T11:58:15;7.27;;;4.13;;
78740;SDS011;68062;48.726;9.370;2024-01-15T12:00:45;7.57;;;5.00;;
78740;SDS011;68062;48.726;9.370;2024-01-15T12:03:15;9.47;;;5.07;;
78740;SDS011;68062;48.726;9.370;2024-01-15T12:05:43;6.57;;;5.40;;
78740;SDS011;68062;48.726;9.370;2024-01-15T12:08:11;8.10;;;4.67;;
78740;SDS011;68062;48.726;9.370;2024-01-15T12:10:39;9.00;;;5.03;;
78740;SDS011;68062;48.726;9.370;2024-01-15T12:13:10;7.83;;;5.13;;
78740;SDS011;68062;48.726;9.370;2024-01-15T12:15:40;9.90;;;5.10;;
78740;SDS011;68062;48.726;9.370;2024-01-15T12:18:11;9.67;;;5.00;;
78740;SDS011;68062;48.726;9.370;2024-01-15T12:20:41;8.90;;;6.37;;
78740;SDS011;68062;48.726;9.370;2024-01-15T12:23:10;7.67;;;4.90;;
78740;SDS011;68062;48.726;9.370;2024-01-15T12:25:39;6.53;;;3.70;;
78740;SDS011;68062;48.726;9.370;2024-01-15T12:28:08;7.30;;;5.30;;
78740;SDS011;68062;48.726;9.370;2024-01-15T12:30:36;7.20;;;5.00;;
78740;SDS011;68062;48.726;9.370;2024-01-15T12:33:05;8.10;;;4.57;;
78740;SDS011;68062;48.726;9.370;2024-01-15T12:35:36;11.87;;;5.67;;
78740;SDS011;68062;48.726;9.370;2024-01-15T12:38:05;7.20;;;5.10;;
78740;SDS011;68062;48.726;9.370;2024-01-15T12:40:35;8.03;;;5.40;;
78740;SDS011;68062;48.726;9.370;2024-01-15T12:43:03;7.73;;;4.83;;
78740;SDS011;68062;48.726;9.370;2024-01-15T12:45:34;8.10;;;5.40;;
78740;SDS011;68062;48.726;9.370;2024-01-15T12:48:04;8.27;;;5.50;;
78740;SDS011;68062;48.726;9.370;2024-01-15T12:50:33;9.47;;;5.70;;
78740;SDS011;68062;48.726;9.370;2024-01-15T12:53:03;9.57;;;5.80;;
78740;SDS011;68062;48.726;9.370;2024-01-15T12:55:31;9.23;;;6.00;;
78740;SDS011;68062;48.726;9.370;2024-01-15T12:58:01;9.43;;;6.27;;
78740;SDS011;68062;48.726;9.370;2024-01-15T13:00:30;8.40;;;5.90;;
78740;SDS011;68062;48.726;9.370;2024-01-15T13:02:58;11.27;;;7.07;;
78740;SDS011;68062;48.726;9.370;2024-01-15T13:05:27;10.13;;;6.70;;
78740;SDS011;68062;48.726;9.370;2024-01-15T13:07:56;13.13;;;7.57;;
78740;SDS011;68062;48.726;9.370;2024-01-15T13:10:27;13.30;;;6.17;;
78740;SDS011;68062;48.726;9.370;2024-01-15T13:12:56;8.90;;;6.47;;
78740;SDS011;68062;48.726;9.370;2024-01-15T13:15:24;10.30;;;6.00;;
78740;SDS011;68062;48.726;9.370;2024-01-15T13:17:52;11.83;;;6.60;;
78740;SDS011;68062;48.726;9.370;2024-01-15T13:20:19;9.43;;;5.77;;
78740;SDS011;68062;48.726;9.370;2024-01-15T13:22:48;9.23;;;6.20;;
78740;SDS011;68062;48.726;9.370;2024-01-15T13:25:16;10.40;;;6.60;;
78740;SDS011;68062;48.726;9.370;2024-01-15T13:27:45;15.00;;;7.20;;
78740;SDS011;68062;48.726;9.370;2024-01-15T13:30:14;12.00;;;7.70;;
78740;SDS011;68062;48.726;9.370;2024-01-15T13:32:42;14.10;;;8.33;;
78740;SDS011;68062;48.726;9.370;2024-01-15T13:35:10;10.73;;;6.23;;
78740;SDS011;68062;48.726;9.370;2024-01-15T13:37:40;14.90;;;7.70;;
78740;SDS011;68062;48.726;9.370;2024-01-15T13:40:11;11.07;;;7.23;;
78740;SDS011;68062;48.726;9.370;2024-01-15T13:42:44;13.23;;;8.77;;
78740;SDS011;68062;48.726;9.370;2024-01-15T13:45:15;10.17;;;7.30;;
78740;SDS011;68062;48.726;9.370;2024-01-15T13:47:43;11.67;;;7.30;;
78740;SDS011;68062;48.726;9.370;2024-01-15T13:50:11;10.50;;;7.33;;
78740;SDS011;68062;48.726;9.370;2024-01-15T13:52:41;11.03;;;7.00;;
78740;SDS011;68062;48.726;9.370;2024-01-15T13:55:09;16.23;;;7.83;;
78740;SDS011;68062;48.726;9.370;2024-01-15T13:57:38;12.53;;;7.40;;
78740;SDS011;68062;48.726;9.370;2024-01-15T14:00:07;11.23;;;8.07;;
78740;SDS011;68062;48.726;9.370;2024-01-15T14:02:39;12.93;;;8.83;;
78740;SDS011;68062;48.726;9.370;2024-01-15T14:05:08;13.30;;;8.13;;
78740;SDS011;68062;48.726;9.370;2024-01-15T14:07:39;10.13;;;7.23;;
78740;SDS011;68062;48.726;9.370;2024-01-15T14:10:07;13.80;;;8.50;;
78740;SDS011;68062;48.726;9.370;2024-01-15T14:12:36;16.43;;;8.70;;
78740;SDS011;68062;48.726;9.370;2024-01-15T14:15:04;15.37;;;8.80;;
78740;SDS011;68062;48.726;9.370;2024-01-15T14:17:34;16.53;;;7.83;;
78740;SDS011;68062;48.726;9.370;2024-01-15T14:20:02;14.30;;;7.70;;
78740;SDS011;68062;48.726;9.370;2024-01-15T14:22:32;15.37;;;8.17;;
78740;SDS011;68062;48.726;9.370;2024-01-15T14:25:00;12.90;;;8.07;;
78740;SDS011;68062;48.726;9.370;2024-01-15T14:27:28;10.90;;;6.23;;
78740;SDS011;68062;48.726;9.370;2024-01-15T14:29:56;11.13;;;7.13;;
78740;SDS011;68062;48.726;9.370;2024-01-15T14:32:24;14.80;;;7.10;;
78740;SDS011;68062;48.726;9.370;2024-01-15T14:34:53;11.23;;;7.00;;
78740;SDS011;68062;48.726;9.370;2024-01-15T14:37:23;14.13;;;6.90;;
78740;SDS011;68062;48.726;9.370;2024-01-15T14:39:51;10.97;;;7.83;;
78740;SDS011;68062;48.726;9.370;2024-01-15T14:42:19;13.50;;;7.80;;
78740;SDS011;68062;48.726;9.370;2024-01-15T14:44:47;13.00;;;7.30;;
78740;SDS011;68062;48.726;9.370;2024-01-15T14:47:15;8.37;;;5.27;;